RJCW/WKJ METAR and TAF weather

Enter ICAO airport designator
Station Type Date Time Source
RJCW METAR 2021/09/28 09:00 UTC NOAA

RJCW 280900Z 18006KT 9999 FEW025 BKN/// 16/14 Q1017


Station Type Date Time Source
RJCW Decoded METAR 2021/09/28 09:00 UTC NOAA

Wakkanai Airport, Japan (RJCW) 45-24N 141-48E 11M
Sep 28, 2021 - 05:00 AM EDT / 2021.09.28 0900 UTC
Wind: from the S (180 degrees) at 7 MPH (6 KT):0
Visibility: greater than 7 mile(s):0
Sky conditions: mostly cloudy
Temperature: 60 F (16 C)
Dew Point: 57 F (14 C)
Relative Humidity: 87%
Pressure (altimeter): 30.03 in. Hg (1017 hPa)
ob: RJCW 280900Z 18006KT 9999 FEW025 BKN/// 16/14 Q1017
cycle: 9

Station Type Date Time Source
RJCW TAF UTC NOAA

Error!

Example: see airport list